Výjezd Riva del Garda - Santa Barbara - 1000m
Location Riva del Garda Start Time 28.10.2010 16:39:46
Category Kolce
Distance 18,37 km Ascend 941,8 m Descend 0,0 m
Total Time 01:55:28 Moving 01:41:44 Stopped 00:13:44
Average Speed 10,5 km/h Fastest Speed 20,1 km/h Slowest Speed 1,1 km/h
Calories 1174 Average HR 162 BPM Max HR 183 BPM
Weather 13 °C ScatterClouds
Equipment
Notes vyjezd na kolcich z Riva del Garda 70m, tesne pod sedlo Santa Barbara do 1050m - prvni pul hodku jsem se motal mestem v dost silenym provozu a pak se to zvedlo - hodne drsny stoupani, 1000m nahoru, uzka silnicka. nahore uz me zastihla tma, dolu autem, verca pro me jela
Splits
Distance (km) Total Time Split Time Split Pace Split Speed Elevation Change (m)
1,00 00:04:23 00:04:23 00:04:23 13,7 4,59
2,00 00:08:26 00:04:03 00:04:04 14,8 -1,18
3,00 00:12:50 00:04:23 00:04:24 13,6 2,12
4,00 00:16:05 00:03:15 00:03:16 18,4 4,42
5,00 00:19:30 00:03:25 00:03:25 17,6 5,05
6,00 00:23:07 00:03:36 00:03:37 16,6 -2,90
7,00 00:26:39 00:03:32 00:03:32 17,0 18,97
8,00 00:31:27 00:04:47 00:04:48 12,5 42,97
9,00 00:38:04 00:06:37 00:06:37 9,1 95,98
10,00 00:44:18 00:06:13 00:06:14 9,6 81,45
11,00 00:51:08 00:06:49 00:06:50 8,8 89,17
12,00 00:59:12 00:08:04 00:08:04 7,4 105,10
13,00 01:07:16 00:08:03 00:08:04 7,4 95,71
14,00 01:14:33 00:07:16 00:07:17 8,2 95,81
15,00 01:21:51 00:07:18 00:07:19 8,2 89,09
16,00 01:29:16 00:07:24 00:07:25 8,1 82,72
17,00 01:36:35 00:07:18 00:07:19 8,2 74,78
18,00 01:42:36 00:06:01 00:06:01 10,0 61,23
18,37 01:44:38 00:02:01 00:05:27 11,0 16,99